sensor_id;sensor_type;location;lat;lon;timestamp;temperature;humidity
32322;DHT22;61553;48.994;8.940;2023-07-31T00:01:44;14.30;99.90
32322;DHT22;61553;48.994;8.940;2023-07-31T00:04:10;14.20;99.90
32322;DHT22;61553;48.994;8.940;2023-07-31T00:06:35;14.30;99.90
32322;DHT22;61553;48.994;8.940;2023-07-31T00:09:01;14.20;99.90
32322;DHT22;61553;48.994;8.940;2023-07-31T00:11:26;14.10;99.90
32322;DHT22;61553;48.994;8.940;2023-07-31T00:13:53;14.10;99.90
32322;DHT22;61553;48.994;8.940;2023-07-31T00:16:19;14.00;99.90
32322;DHT22;61553;48.994;8.940;2023-07-31T00:18:44;13.90;99.90
32322;DHT22;61553;48.994;8.940;2023-07-31T00:21:10;13.90;99.90
32322;DHT22;61553;48.994;8.940;2023-07-31T00:23:36;13.80;99.90
32322;DHT22;61553;48.994;8.940;2023-07-31T00:26:01;13.70;99.90
32322;DHT22;61553;48.994;8.940;2023-07-31T00:28:27;13.70;99.90
32322;DHT22;61553;48.994;8.940;2023-07-31T00:30:54;13.60;99.90
32322;DHT22;61553;48.994;8.940;2023-07-31T00:33:19;13.50;99.90
32322;DHT22;61553;48.994;8.940;2023-07-31T00:35:45;13.50;99.90
32322;DHT22;61553;48.994;8.940;2023-07-31T00:38:11;13.50;99.90
32322;DHT22;61553;48.994;8.940;2023-07-31T00:40:37;13.40;99.90
32322;DHT22;61553;48.994;8.940;2023-07-31T00:43:03;13.50;99.90
32322;DHT22;61553;48.994;8.940;2023-07-31T00:45:29;13.50;99.90
32322;DHT22;61553;48.994;8.940;2023-07-31T00:47:56;13.50;99.90
32322;DHT22;61553;48.994;8.940;2023-07-31T00:50:26;13.50;99.90
32322;DHT22;61553;48.994;8.940;2023-07-31T00:52:52;13.40;99.90
32322;DHT22;61553;48.994;8.940;2023-07-31T00:55:18;13.40;99.90
32322;DHT22;61553;48.994;8.940;2023-07-31T00:57:45;13.40;99.90
32322;DHT22;61553;48.994;8.940;2023-07-31T01:00:11;13.40;99.90
32322;DHT22;61553;48.994;8.940;2023-07-31T01:02:37;13.50;99.90
32322;DHT22;61553;48.994;8.940;2023-07-31T01:05:03;13.50;99.90
32322;DHT22;61553;48.994;8.940;2023-07-31T01:07:45;13.60;99.90
32322;DHT22;61553;48.994;8.940;2023-07-31T01:10:26;13.70;99.90
32322;DHT22;61553;48.994;8.940;2023-07-31T01:12:53;13.80;99.90
32322;DHT22;61553;48.994;8.940;2023-07-31T01:15:21;13.90;99.90
32322;DHT22;61553;48.994;8.940;2023-07-31T01:17:46;14.00;99.90
32322;DHT22;61553;48.994;8.940;2023-07-31T01:20:16;14.10;99.90
32322;DHT22;61553;48.994;8.940;2023-07-31T01:31:22;14.30;99.90
32322;DHT22;61553;48.994;8.940;2023-07-31T01:33:50;14.20;99.90
32322;DHT22;61553;48.994;8.940;2023-07-31T01:36:18;14.20;99.90
32322;DHT22;61553;48.994;8.940;2023-07-31T01:38:44;14.20;99.90
32322;DHT22;61553;48.994;8.940;2023-07-31T01:41:09;14.20;99.90
32322;DHT22;61553;48.994;8.940;2023-07-31T01:43:35;14.20;99.90
32322;DHT22;61553;48.994;8.940;2023-07-31T01:46:00;14.10;99.90
32322;DHT22;61553;48.994;8.940;2023-07-31T01:48:26;14.10;99.90
32322;DHT22;61553;48.994;8.940;2023-07-31T01:50:52;14.00;99.90
32322;DHT22;61553;48.994;8.940;2023-07-31T01:53:17;13.90;99.90
32322;DHT22;61553;48.994;8.940;2023-07-31T01:55:43;13.80;99.90
32322;DHT22;61553;48.994;8.940;2023-07-31T01:58:09;13.80;99.90
32322;DHT22;61553;48.994;8.940;2023-07-31T02:00:35;13.80;99.90
32322;DHT22;61553;48.994;8.940;2023-07-31T02:03:00;13.80;99.90
32322;DHT22;61553;48.994;8.940;2023-07-31T02:05:26;13.80;99.90
32322;DHT22;61553;48.994;8.940;2023-07-31T02:07:52;13.80;99.90
32322;DHT22;61553;48.994;8.940;2023-07-31T02:10:17;13.80;99.90
32322;DHT22;61553;48.994;8.940;2023-07-31T02:12:43;13.80;99.90
32322;DHT22;61553;48.994;8.940;2023-07-31T02:15:09;13.80;99.90
32322;DHT22;61553;48.994;8.940;2023-07-31T02:17:34;13.80;99.90
32322;DHT22;61553;48.994;8.940;2023-07-31T02:20:00;13.90;99.90
32322;DHT22;61553;48.994;8.940;2023-07-31T02:22:26;13.90;99.90
32322;DHT22;61553;48.994;8.940;2023-07-31T02:24:51;14.00;99.90
32322;DHT22;61553;48.994;8.940;2023-07-31T02:27:17;14.00;99.90
32322;DHT22;61553;48.994;8.940;2023-07-31T02:29:42;14.00;99.90
32322;DHT22;61553;48.994;8.940;2023-07-31T02:32:08;14.00;99.90
32322;DHT22;61553;48.994;8.940;2023-07-31T02:34:34;14.00;99.90
32322;DHT22;61553;48.994;8.940;2023-07-31T02:36:59;14.00;99.90
32322;DHT22;61553;48.994;8.940;2023-07-31T02:39:25;14.00;99.90
32322;DHT22;61553;48.994;8.940;2023-07-31T02:41:51;14.00;99.90
32322;DHT22;61553;48.994;8.940;2023-07-31T02:44:16;14.10;99.90
32322;DHT22;61553;48.994;8.940;2023-07-31T02:46:42;14.10;99.90
32322;DHT22;61553;48.994;8.940;2023-07-31T02:49:07;14.00;99.90
32322;DHT22;61553;48.994;8.940;2023-07-31T02:51:33;14.00;99.90
32322;DHT22;61553;48.994;8.940;2023-07-31T02:53:59;13.90;99.90
32322;DHT22;61553;48.994;8.940;2023-07-31T02:56:24;13.90;99.90
32322;DHT22;61553;48.994;8.940;2023-07-31T02:58:50;13.80;99.90
32322;DHT22;61553;48.994;8.940;2023-07-31T03:01:15;13.80;99.90
32322;DHT22;61553;48.994;8.940;2023-07-31T03:03:41;13.80;99.90
32322;DHT22;61553;48.994;8.940;2023-07-31T03:06:07;13.80;99.90
32322;DHT22;61553;48.994;8.940;2023-07-31T03:08:33;13.80;99.90
32322;DHT22;61553;48.994;8.940;2023-07-31T03:10:58;13.80;99.90
32322;DHT22;61553;48.994;8.940;2023-07-31T03:13:24;13.80;99.90
32322;DHT22;61553;48.994;8.940;2023-07-31T03:15:50;13.80;99.90
32322;DHT22;61553;48.994;8.940;2023-07-31T03:18:16;13.80;99.90
32322;DHT22;61553;48.994;8.940;2023-07-31T03:20:44;13.90;99.90
32322;DHT22;61553;48.994;8.940;2023-07-31T03:23:10;13.90;99.90
32322;DHT22;61553;48.994;8.940;2023-07-31T03:25:36;13.90;99.90
32322;DHT22;61553;48.994;8.940;2023-07-31T03:28:02;13.90;99.90
32322;DHT22;61553;48.994;8.940;2023-07-31T03:30:28;13.80;99.90
32322;DHT22;61553;48.994;8.940;2023-07-31T03:32:53;13.70;99.90
32322;DHT22;61553;48.994;8.940;2023-07-31T03:35:19;13.70;99.90
32322;DHT22;61553;48.994;8.940;2023-07-31T03:37:45;13.60;99.90
32322;DHT22;61553;48.994;8.940;2023-07-31T03:40:11;13.50;99.90
32322;DHT22;61553;48.994;8.940;2023-07-31T03:42:36;13.50;99.90
32322;DHT22;61553;48.994;8.940;2023-07-31T03:45:02;13.60;99.90
32322;DHT22;61553;48.994;8.940;2023-07-31T03:47:28;13.50;99.90
32322;DHT22;61553;48.994;8.940;2023-07-31T03:49:53;13.60;99.90
32322;DHT22;61553;48.994;8.940;2023-07-31T03:52:19;13.60;99.90
32322;DHT22;61553;48.994;8.940;2023-07-31T03:54:45;13.70;99.90
32322;DHT22;61553;48.994;8.940;2023-07-31T03:57:11;13.70;99.90
32322;DHT22;61553;48.994;8.940;2023-07-31T03:59:37;13.70;99.90
32322;DHT22;61553;48.994;8.940;2023-07-31T04:02:04;13.70;99.90
32322;DHT22;61553;48.994;8.940;2023-07-31T04:04:30;13.70;99.90
32322;DHT22;61553;48.994;8.940;2023-07-31T04:06:55;13.70;99.90
32322;DHT22;61553;48.994;8.940;2023-07-31T04:09:21;13.70;99.90
32322;DHT22;61553;48.994;8.940;2023-07-31T04:11:46;13.80;99.90
32322;DHT22;61553;48.994;8.940;2023-07-31T04:14:12;13.90;99.90
32322;DHT22;61553;48.994;8.940;2023-07-31T04:16:38;13.90;99.90
32322;DHT22;61553;48.994;8.940;2023-07-31T04:19:04;14.00;99.90
32322;DHT22;61553;48.994;8.940;2023-07-31T04:21:29;14.10;99.90
32322;DHT22;61553;48.994;8.940;2023-07-31T04:23:55;14.20;99.90
32322;DHT22;61553;48.994;8.940;2023-07-31T04:26:21;14.20;99.90
32322;DHT22;61553;48.994;8.940;2023-07-31T04:28:47;14.30;99.90
32322;DHT22;61553;48.994;8.940;2023-07-31T04:31:13;14.40;99.90
32322;DHT22;61553;48.994;8.940;2023-07-31T04:33:38;14.50;99.90
32322;DHT22;61553;48.994;8.940;2023-07-31T04:36:04;14.60;99.90
32322;DHT22;61553;48.994;8.940;2023-07-31T04:38:30;14.60;99.90
32322;DHT22;61553;48.994;8.940;2023-07-31T04:40:56;14.70;99.90
32322;DHT22;61553;48.994;8.940;2023-07-31T04:43:21;14.70;99.90
32322;DHT22;61553;48.994;8.940;2023-07-31T04:45:47;14.70;99.90
32322;DHT22;61553;48.994;8.940;2023-07-31T04:48:13;14.70;99.90
32322;DHT22;61553;48.994;8.940;2023-07-31T04:50:39;14.70;99.90
32322;DHT22;61553;48.994;8.940;2023-07-31T04:53:05;14.70;99.90
32322;DHT22;61553;48.994;8.940;2023-07-31T04:55:31;14.80;99.90
32322;DHT22;61553;48.994;8.940;2023-07-31T04:57:58;14.90;99.90
32322;DHT22;61553;48.994;8.940;2023-07-31T05:00:24;14.90;99.90
32322;DHT22;61553;48.994;8.940;2023-07-31T05:02:50;15.00;99.90
32322;DHT22;61553;48.994;8.940;2023-07-31T05:05:15;15.10;99.90
32322;DHT22;61553;48.994;8.940;2023-07-31T05:07:41;15.20;99.90
32322;DHT22;61553;48.994;8.940;2023-07-31T05:10:07;15.30;99.90
32322;DHT22;61553;48.994;8.940;2023-07-31T05:12:33;15.40;99.90
32322;DHT22;61553;48.994;8.940;2023-07-31T05:14:58;15.50;99.90
32322;DHT22;61553;48.994;8.940;2023-07-31T05:17:24;15.60;99.90
32322;DHT22;61553;48.994;8.940;2023-07-31T05:19:49;15.70;99.90
32322;DHT22;61553;48.994;8.940;2023-07-31T05:22:15;15.80;99.90
32322;DHT22;61553;48.994;8.940;2023-07-31T05:24:41;15.90;99.90
32322;DHT22;61553;48.994;8.940;2023-07-31T05:27:06;16.10;99.90
32322;DHT22;61553;48.994;8.940;2023-07-31T05:29:32;16.20;99.90
32322;DHT22;61553;48.994;8.940;2023-07-31T05:31:58;16.30;99.90
32322;DHT22;61553;48.994;8.940;2023-07-31T05:34:23;16.40;99.90
32322;DHT22;61553;48.994;8.940;2023-07-31T05:36:49;16.60;99.90
32322;DHT22;61553;48.994;8.940;2023-07-31T05:39:15;16.80;99.90
32322;DHT22;61553;48.994;8.940;2023-07-31T05:41:40;16.90;99.90
32322;DHT22;61553;48.994;8.940;2023-07-31T05:44:06;17.00;99.90
32322;DHT22;61553;48.994;8.940;2023-07-31T05:46:31;17.30;99.90
32322;DHT22;61553;48.994;8.940;2023-07-31T05:48:58;17.60;99.90
32322;DHT22;61553;48.994;8.940;2023-07-31T05:51:26;17.90;99.90
32322;DHT22;61553;48.994;8.940;2023-07-31T05:53:52;18.10;99.90
32322;DHT22;61553;48.994;8.940;2023-07-31T05:56:17;18.30;99.90
32322;DHT22;61553;48.994;8.940;2023-07-31T05:58:43;18.60;99.90
32322;DHT22;61553;48.994;8.940;2023-07-31T06:01:08;18.90;99.90
32322;DHT22;61553;48.994;8.940;2023-07-31T06:03:34;19.30;99.90
32322;DHT22;61553;48.994;8.940;2023-07-31T06:06:00;19.80;99.90
32322;DHT22;61553;48.994;8.940;2023-07-31T06:08:25;20.20;99.90
32322;DHT22;61553;48.994;8.940;2023-07-31T06:10:51;20.80;99.90
32322;DHT22;61553;48.994;8.940;2023-07-31T06:13:17;21.50;99.90
32322;DHT22;61553;48.994;8.940;2023-07-31T06:15:42;22.70;98.60
32322;DHT22;61553;48.994;8.940;2023-07-31T06:18:08;23.00;96.50
32322;DHT22;61553;48.994;8.940;2023-07-31T06:20:34;24.50;92.70
32322;DHT22;61553;48.994;8.940;2023-07-31T06:23:00;24.60;89.30
32322;DHT22;61553;48.994;8.940;2023-07-31T06:25:25;24.40;87.90
32322;DHT22;61553;48.994;8.940;2023-07-31T06:27:51;25.10;84.70
32322;DHT22;61553;48.994;8.940;2023-07-31T06:30:17;28.10;75.40
32322;DHT22;61553;48.994;8.940;2023-07-31T06:32:42;30.80;66.20
32322;DHT22;61553;48.994;8.940;2023-07-31T06:35:08;33.10;56.40
32322;DHT22;61553;48.994;8.940;2023-07-31T06:37:34;33.60;52.70
32322;DHT22;61553;48.994;8.940;2023-07-31T06:39:59;32.30;52.30
32322;DHT22;61553;48.994;8.940;2023-07-31T06:42:25;30.60;54.30
32322;DHT22;61553;48.994;8.940;2023-07-31T06:44:51;29.50;56.70
32322;DHT22;61553;48.994;8.940;2023-07-31T06:47:16;29.40;57.10
32322;DHT22;61553;48.994;8.940;2023-07-31T06:49:42;29.10;57.70
32322;DHT22;61553;48.994;8.940;2023-07-31T06:52:08;28.30;58.90
32322;DHT22;61553;48.994;8.940;2023-07-31T06:54:33;27.30;60.80
32322;DHT22;61553;48.994;8.940;2023-07-31T06:56:59;26.60;62.20
32322;DHT22;61553;48.994;8.940;2023-07-31T06:59:25;26.10;63.40
32322;DHT22;61553;48.994;8.940;2023-07-31T07:01:50;25.70;64.40
32322;DHT22;61553;48.994;8.940;2023-07-31T07:04:16;25.30;65.00
32322;DHT22;61553;48.994;8.940;2023-07-31T07:06:41;24.80;66.40
32322;DHT22;61553;48.994;8.940;2023-07-31T07:09:07;24.40;67.60
32322;DHT22;61553;48.994;8.940;2023-07-31T07:11:33;24.10;69.00
32322;DHT22;61553;48.994;8.940;2023-07-31T07:13:59;23.80;69.60
32322;DHT22;61553;48.994;8.940;2023-07-31T07:16:26;23.60;70.50
32322;DHT22;61553;48.994;8.940;2023-07-31T07:18:51;23.60;71.70
32322;DHT22;61553;48.994;8.940;2023-07-31T07:21:17;23.50;71.20
32322;DHT22;61553;48.994;8.940;2023-07-31T07:23:43;23.50;72.20
32322;DHT22;61553;48.994;8.940;2023-07-31T07:26:09;23.50;71.70
32322;DHT22;61553;48.994;8.940;2023-07-31T07:28:34;23.50;72.30
32322;DHT22;61553;48.994;8.940;2023-07-31T07:31:03;23.80;72.50
32322;DHT22;61553;48.994;8.940;2023-07-31T07:33:28;24.00;70.80
32322;DHT22;61553;48.994;8.940;2023-07-31T07:35:54;24.40;70.80
32322;DHT22;61553;48.994;8.940;2023-07-31T07:38:20;24.70;70.70
32322;DHT22;61553;48.994;8.940;2023-07-31T07:40:46;25.60;69.20
32322;DHT22;61553;48.994;8.940;2023-07-31T07:43:15;26.60;66.30
32322;DHT22;61553;48.994;8.940;2023-07-31T07:45:41;26.90;65.60
32322;DHT22;61553;48.994;8.940;2023-07-31T07:48:07;26.90;64.00
32322;DHT22;61553;48.994;8.940;2023-07-31T07:50:32;26.60;64.50
32322;DHT22;61553;48.994;8.940;2023-07-31T07:52:58;26.30;65.50
32322;DHT22;61553;48.994;8.940;2023-07-31T07:55:24;26.70;65.00
32322;DHT22;61553;48.994;8.940;2023-07-31T07:57:49;27.60;62.70
32322;DHT22;61553;48.994;8.940;2023-07-31T08:00:16;28.20;62.20
32322;DHT22;61553;48.994;8.940;2023-07-31T08:02:43;28.90;60.90
32322;DHT22;61553;48.994;8.940;2023-07-31T08:05:09;28.90;59.80
32322;DHT22;61553;48.994;8.940;2023-07-31T08:07:34;28.80;60.10
32322;DHT22;61553;48.994;8.940;2023-07-31T08:10:00;29.00;60.00
32322;DHT22;61553;48.994;8.940;2023-07-31T08:12:26;29.30;59.20
32322;DHT22;61553;48.994;8.940;2023-07-31T08:14:51;29.70;57.80
32322;DHT22;61553;48.994;8.940;2023-07-31T08:17:17;29.50;57.90
32322;DHT22;61553;48.994;8.940;2023-07-31T08:19:43;29.20;58.00
32322;DHT22;61553;48.994;8.940;2023-07-31T08:22:09;28.70;59.30
32322;DHT22;61553;48.994;8.940;2023-07-31T08:24:35;28.30;59.00
32322;DHT22;61553;48.994;8.940;2023-07-31T08:27:00;27.70;60.20
32322;DHT22;61553;48.994;8.940;2023-07-31T08:29:26;27.20;61.90
32322;DHT22;61553;48.994;8.940;2023-07-31T08:31:52;26.70;62.20
32322;DHT22;61553;48.994;8.940;2023-07-31T08:34:17;26.30;63.80
32322;DHT22;61553;48.994;8.940;2023-07-31T08:36:43;25.90;64.30
32322;DHT22;61553;48.994;8.940;2023-07-31T08:39:08;25.60;65.60
32322;DHT22;61553;48.994;8.940;2023-07-31T08:41:38;25.40;66.10
32322;DHT22;61553;48.994;8.940;2023-07-31T08:44:05;25.20;65.70
32322;DHT22;61553;48.994;8.940;2023-07-31T08:46:31;24.90;66.80
32322;DHT22;61553;48.994;8.940;2023-07-31T08:48:59;24.70;67.80
32322;DHT22;61553;48.994;8.940;2023-07-31T08:51:25;24.60;68.60
32322;DHT22;61553;48.994;8.940;2023-07-31T08:53:53;24.50;68.20
32322;DHT22;61553;48.994;8.940;2023-07-31T08:56:18;24.50;68.60
32322;DHT22;61553;48.994;8.940;2023-07-31T08:58:44;24.60;68.20
32322;DHT22;61553;48.994;8.940;2023-07-31T09:01:10;24.60;68.70
32322;DHT22;61553;48.994;8.940;2023-07-31T09:03:37;24.70;68.10
32322;DHT22;61553;48.994;8.940;2023-07-31T09:06:04;24.80;68.60
32322;DHT22;61553;48.994;8.940;2023-07-31T09:08:32;25.00;69.10
32322;DHT22;61553;48.994;8.940;2023-07-31T09:11:01;25.30;67.90
32322;DHT22;61553;48.994;8.940;2023-07-31T09:13:30;25.70;65.90
32322;DHT22;61553;48.994;8.940;2023-07-31T09:15:56;26.30;63.90
32322;DHT22;61553;48.994;8.940;2023-07-31T09:18:21;27.00;62.20
32322;DHT22;61553;48.994;8.940;2023-07-31T09:21:04;27.90;60.90
32322;DHT22;61553;48.994;8.940;2023-07-31T09:23:46;29.30;58.20
32322;DHT22;61553;48.994;8.940;2023-07-31T09:26:46;29.50;57.20
32322;DHT22;61553;48.994;8.940;2023-07-31T09:29:06;29.30;57.30
32322;DHT22;61553;48.994;8.940;2023-07-31T09:31:37;28.90;58.00
32322;DHT22;61553;48.994;8.940;2023-07-31T09:34:03;28.30;57.50
32322;DHT22;61553;48.994;8.940;2023-07-31T09:36:29;27.40;59.10
32322;DHT22;61553;48.994;8.940;2023-07-31T09:39:01;27.10;60.30
32322;DHT22;61553;48.994;8.940;2023-07-31T09:41:27;27.20;60.20
32322;DHT22;61553;48.994;8.940;2023-07-31T09:43:53;26.80;61.40
32322;DHT22;61553;48.994;8.940;2023-07-31T09:46:20;26.40;62.10
32322;DHT22;61553;48.994;8.940;2023-07-31T09:48:46;26.40;63.30
32322;DHT22;61553;48.994;8.940;2023-07-31T09:51:12;26.20;63.50
32322;DHT22;61553;48.994;8.940;2023-07-31T09:53:37;26.40;62.40
32322;DHT22;61553;48.994;8.940;2023-07-31T09:56:03;26.20;62.00
32322;DHT22;61553;48.994;8.940;2023-07-31T09:58:30;26.50;62.20
32322;DHT22;61553;48.994;8.940;2023-07-31T10:01:00;26.70;61.90
32322;DHT22;61553;48.994;8.940;2023-07-31T10:03:27;26.50;61.40
32322;DHT22;61553;48.994;8.940;2023-07-31T10:05:56;26.50;61.00
32322;DHT22;61553;48.994;8.940;2023-07-31T10:08:26;26.40;62.10
32322;DHT22;61553;48.994;8.940;2023-07-31T10:10:58;26.40;62.90
32322;DHT22;61553;48.994;8.940;2023-07-31T10:13:25;26.20;62.10
32322;DHT22;61553;48.994;8.940;2023-07-31T10:15:53;25.90;62.20
32322;DHT22;61553;48.994;8.940;2023-07-31T10:18:20;25.60;62.70
32322;DHT22;61553;48.994;8.940;2023-07-31T10:20:46;25.60;62.70
32322;DHT22;61553;48.994;8.940;2023-07-31T10:23:12;25.10;62.90
32322;DHT22;61553;48.994;8.940;2023-07-31T10:25:38;25.30;64.30
32322;DHT22;61553;48.994;8.940;2023-07-31T10:28:04;25.30;64.10
32322;DHT22;61553;48.994;8.940;2023-07-31T10:30:32;25.50;64.60
32322;DHT22;61553;48.994;8.940;2023-07-31T10:32:59;25.50;63.90
32322;DHT22;61553;48.994;8.940;2023-07-31T10:35:26;25.60;63.90
32322;DHT22;61553;48.994;8.940;2023-07-31T10:37:52;25.90;63.50
32322;DHT22;61553;48.994;8.940;2023-07-31T10:40:27;26.10;63.70
32322;DHT22;61553;48.994;8.940;2023-07-31T10:42:56;26.30;62.80
32322;DHT22;61553;48.994;8.940;2023-07-31T10:48:15;27.20;62.00
32322;DHT22;61553;48.994;8.940;2023-07-31T10:50:49;27.60;59.70
32322;DHT22;61553;48.994;8.940;2023-07-31T10:53:29;27.80;59.40
32322;DHT22;61553;48.994;8.940;2023-07-31T10:55:59;27.90;58.40
32322;DHT22;61553;48.994;8.940;2023-07-31T10:58:25;28.10;59.10
32322;DHT22;61553;48.994;8.940;2023-07-31T11:00:55;28.20;58.40
32322;DHT22;61553;48.994;8.940;2023-07-31T11:03:25;27.80;58.70
32322;DHT22;61553;48.994;8.940;2023-07-31T11:06:01;27.40;58.90
32322;DHT22;61553;48.994;8.940;2023-07-31T11:08:33;26.80;59.70
32322;DHT22;61553;48.994;8.940;2023-07-31T11:16:13;25.80;62.90
32322;DHT22;61553;48.994;8.940;2023-07-31T11:18:43;25.80;63.50
32322;DHT22;61553;48.994;8.940;2023-07-31T11:21:21;25.80;63.30
32322;DHT22;61553;48.994;8.940;2023-07-31T11:23:57;26.00;62.90
32322;DHT22;61553;48.994;8.940;2023-07-31T11:26:23;26.40;62.80
32322;DHT22;61553;48.994;8.940;2023-07-31T11:28:50;26.20;61.10
32322;DHT22;61553;48.994;8.940;2023-07-31T11:31:16;26.20;61.20
32322;DHT22;61553;48.994;8.940;2023-07-31T11:33:42;26.20;62.30
32322;DHT22;61553;48.994;8.940;2023-07-31T11:36:15;26.10;63.00
32322;DHT22;61553;48.994;8.940;2023-07-31T11:38:41;26.30;62.20
32322;DHT22;61553;48.994;8.940;2023-07-31T11:41:07;26.50;63.10
32322;DHT22;61553;48.994;8.940;2023-07-31T11:43:33;26.80;61.40
32322;DHT22;61553;48.994;8.940;2023-07-31T11:46:00;27.10;62.20
32322;DHT22;61553;48.994;8.940;2023-07-31T11:48:30;27.20;61.80
32322;DHT22;61553;48.994;8.940;2023-07-31T11:51:00;27.30;60.80
32322;DHT22;61553;48.994;8.940;2023-07-31T11:56:13;26.80;60.90
32322;DHT22;61553;48.994;8.940;2023-07-31T11:58:40;26.70;61.50
32322;DHT22;61553;48.994;8.940;2023-07-31T12:01:06;26.60;63.20
32322;DHT22;61553;48.994;8.940;2023-07-31T12:03:33;26.70;62.60
32322;DHT22;61553;48.994;8.940;2023-07-31T12:06:00;26.50;62.20
32322;DHT22;61553;48.994;8.940;2023-07-31T12:08:25;26.00;62.40
32322;DHT22;61553;48.994;8.940;2023-07-31T12:10:52;26.10;62.50
32322;DHT22;61553;48.994;8.940;2023-07-31T12:13:26;26.30;62.40
32322;DHT22;61553;48.994;8.940;2023-07-31T12:15:56;26.50;62.00
32322;DHT22;61553;48.994;8.940;2023-07-31T12:18:24;26.40;62.40
32322;DHT22;61553;48.994;8.940;2023-07-31T12:20:54;26.30;61.60
32322;DHT22;61553;48.994;8.940;2023-07-31T12:23:22;26.50;62.20
32322;DHT22;61553;48.994;8.940;2023-07-31T12:28:35;26.50;61.80
32322;DHT22;61553;48.994;8.940;2023-07-31T12:31:02;26.50;61.70
32322;DHT22;61553;48.994;8.940;2023-07-31T12:33:32;26.60;62.50
32322;DHT22;61553;48.994;8.940;2023-07-31T12:36:00;26.80;61.30
32322;DHT22;61553;48.994;8.940;2023-07-31T12:38:26;26.70;60.40
32322;DHT22;61553;48.994;8.940;2023-07-31T12:40:52;26.80;61.20
32322;DHT22;61553;48.994;8.940;2023-07-31T12:43:17;26.60;62.30
32322;DHT22;61553;48.994;8.940;2023-07-31T12:45:43;26.30;62.80
32322;DHT22;61553;48.994;8.940;2023-07-31T12:48:08;26.20;63.10
32322;DHT22;61553;48.994;8.940;2023-07-31T12:50:34;26.00;63.50
32322;DHT22;61553;48.994;8.940;2023-07-31T12:53:02;25.90;63.70
32322;DHT22;61553;48.994;8.940;2023-07-31T12:55:31;25.60;64.20
32322;DHT22;61553;48.994;8.940;2023-07-31T12:58:00;25.50;64.40
32322;DHT22;61553;48.994;8.940;2023-07-31T13:00:25;25.60;64.40
32322;DHT22;61553;48.994;8.940;2023-07-31T13:02:51;25.60;64.40
32322;DHT22;61553;48.994;8.940;2023-07-31T13:05:17;25.40;64.00
32322;DHT22;61553;48.994;8.940;2023-07-31T13:07:45;25.50;63.60
32322;DHT22;61553;48.994;8.940;2023-07-31T13:10:11;25.50;63.90
32322;DHT22;61553;48.994;8.940;2023-07-31T13:12:36;25.60;65.00
32322;DHT22;61553;48.994;8.940;2023-07-31T13:15:05;25.50;65.30
32322;DHT22;61553;48.994;8.940;2023-07-31T13:17:31;25.40;65.80
32322;DHT22;61553;48.994;8.940;2023-07-31T13:19:57;25.60;65.60
32322;DHT22;61553;48.994;8.940;2023-07-31T13:22:23;25.90;65.00
32322;DHT22;61553;48.994;8.940;2023-07-31T13:24:48;26.30;64.40
32322;DHT22;61553;48.994;8.940;2023-07-31T13:27:14;26.60;63.90
32322;DHT22;61553;48.994;8.940;2023-07-31T13:29:44;26.70;63.70
32322;DHT22;61553;48.994;8.940;2023-07-31T13:32:10;26.70;63.50
32322;DHT22;61553;48.994;8.940;2023-07-31T13:34:35;26.60;62.30
32322;DHT22;61553;48.994;8.940;2023-07-31T13:37:01;26.50;62.10
32322;DHT22;61553;48.994;8.940;2023-07-31T13:39:26;26.40;61.80
32322;DHT22;61553;48.994;8.940;2023-07-31T13:41:52;26.40;62.70
32322;DHT22;61553;48.994;8.940;2023-07-31T13:44:19;26.20;63.30
32322;DHT22;61553;48.994;8.940;2023-07-31T13:46:44;26.00;63.40
32322;DHT22;61553;48.994;8.940;2023-07-31T13:49:10;25.80;65.00
32322;DHT22;61553;48.994;8.940;2023-07-31T13:51:36;25.70;65.30
32322;DHT22;61553;48.994;8.940;2023-07-31T13:54:01;25.80;64.70
32322;DHT22;61553;48.994;8.940;2023-07-31T13:56:27;25.90;64.30
32322;DHT22;61553;48.994;8.940;2023-07-31T13:58:52;25.90;64.70
32322;DHT22;61553;48.994;8.940;2023-07-31T14:01:18;25.90;64.50
32322;DHT22;61553;48.994;8.940;2023-07-31T14:03:44;25.90;64.50
32322;DHT22;61553;48.994;8.940;2023-07-31T14:06:09;25.70;65.30
32322;DHT22;61553;48.994;8.940;2023-07-31T14:08:35;25.60;64.50
32322;DHT22;61553;48.994;8.940;2023-07-31T14:11:01;25.60;65.40
32322;DHT22;61553;48.994;8.940;2023-07-31T14:13:26;25.70;65.40
32322;DHT22;61553;48.994;8.940;2023-07-31T14:15:52;25.70;65.40
32322;DHT22;61553;48.994;8.940;2023-07-31T14:18:18;25.70;66.00
32322;DHT22;61553;48.994;8.940;2023-07-31T14:20:44;25.80;66.00
32322;DHT22;61553;48.994;8.940;2023-07-31T14:23:09;25.70;65.00
32322;DHT22;61553;48.994;8.940;2023-07-31T14:25:35;25.60;65.30
32322;DHT22;61553;48.994;8.940;2023-07-31T14:28:00;25.70;65.10
32322;DHT22;61553;48.994;8.940;2023-07-31T14:30:26;25.60;66.90
32322;DHT22;61553;48.994;8.940;2023-07-31T14:32:52;25.50;66.60
32322;DHT22;61553;48.994;8.940;2023-07-31T14:35:17;25.30;66.30
32322;DHT22;61553;48.994;8.940;2023-07-31T14:37:44;25.50;66.30
32322;DHT22;61553;48.994;8.940;2023-07-31T14:40:11;25.50;67.60
32322;DHT22;61553;48.994;8.940;2023-07-31T14:42:38;25.40;67.40
32322;DHT22;61553;48.994;8.940;2023-07-31T14:45:05;25.40;66.70
32322;DHT22;61553;48.994;8.940;2023-07-31T14:47:31;25.40;68.20
32322;DHT22;61553;48.994;8.940;2023-07-31T14:49:58;25.20;67.20
32322;DHT22;61553;48.994;8.940;2023-07-31T14:52:24;25.10;68.30
32322;DHT22;61553;48.994;8.940;2023-07-31T14:54:50;24.90;68.40
32322;DHT22;61553;48.994;8.940;2023-07-31T14:57:16;24.70;69.00
32322;DHT22;61553;48.994;8.940;2023-07-31T14:59:41;24.50;69.80
32322;DHT22;61553;48.994;8.940;2023-07-31T15:02:10;24.30;69.30
32322;DHT22;61553;48.994;8.940;2023-07-31T15:04:36;24.10;69.50
32322;DHT22;61553;48.994;8.940;2023-07-31T15:07:02;24.00;69.40
32322;DHT22;61553;48.994;8.940;2023-07-31T15:09:27;24.10;69.30
32322;DHT22;61553;48.994;8.940;2023-07-31T15:11:53;24.20;69.80
32322;DHT22;61553;48.994;8.940;2023-07-31T15:14:19;24.40;68.20
32322;DHT22;61553;48.994;8.940;2023-07-31T15:16:45;24.60;68.80
32322;DHT22;61553;48.994;8.940;2023-07-31T15:19:11;24.90;67.80
32322;DHT22;61553;48.994;8.940;2023-07-31T15:21:37;24.90;68.10
32322;DHT22;61553;48.994;8.940;2023-07-31T15:24:03;25.10;66.90
32322;DHT22;61553;48.994;8.940;2023-07-31T15:26:29;25.30;67.10
32322;DHT22;61553;48.994;8.940;2023-07-31T15:29:03;25.20;66.10
32322;DHT22;61553;48.994;8.940;2023-07-31T15:31:31;25.00;67.10
32322;DHT22;61553;48.994;8.940;2023-07-31T15:33:57;25.00;67.60
32322;DHT22;61553;48.994;8.940;2023-07-31T15:36:22;25.00;67.10
32322;DHT22;61553;48.994;8.940;2023-07-31T15:38:48;24.90;67.20
32322;DHT22;61553;48.994;8.940;2023-07-31T15:41:17;25.00;67.90
32322;DHT22;61553;48.994;8.940;2023-07-31T15:43:42;24.90;67.80
32322;DHT22;61553;48.994;8.940;2023-07-31T15:46:08;24.90;68.70
32322;DHT22;61553;48.994;8.940;2023-07-31T15:48:34;25.00;68.50